ADDS METAR Data INFO
IDs: Format: Raw Decoded Include TAF

Data at: 0055 UTC 21 Oct 2017

KBXA 210035Z AUTO 00000KT 10SM SCT033 SCT080 23/19 A3010 RMK AO2 T02320191
KBXA 210015Z AUTO 00000KT 10SM SCT037 SCT050 BKN080 24/20 A3009 RMK AO2 T02360195
KBXA 202355Z AUTO 00000KT 10SM SCT037 SCT060 OVC080 24/20 A3009 RMK AO2 T02380195 10289 20230
KBXA 202335Z AUTO 00000KT 10SM SCT037 SCT080 BKN085 23/20 A3009 RMK AO2 T02310195
KBXA 202315Z AUTO 00000KT 10SM SCT080 25/20 A3009 RMK AO2 T02460196
KBXA 202255Z AUTO 00000KT 10SM SCT032 SCT080 24/20 A3009 RMK AO2 T02440198
KBXA 202235Z AUTO 00000KT 10SM CLR 26/19 A3008 RMK AO2 LTG DSNT W T02570190
KBXA 202215Z AUTO 00000KT 10SM SCT060 26/19 A3008 RMK AO2 LTG DSNT W T02600188
KBXA 202155Z AUTO 16004KT 10SM BKN060 26/19 A3008 RMK AO2 T02620188
KBXA 202135Z AUTO 16003KT 10SM BKN060 27/19 A3009 RMK AO2 T02660185
KBXA 202115Z AUTO 16005KT 10SM SCT070 28/19 A3009 RMK AO2 T02750186
KBXA 202055Z AUTO 14007KT 10SM BKN070 28/18 A3009 RMK AO2 LTG DSNT W T02790183
KBXA 202035Z AUTO 11006KT 10SM SCT031 BKN060 OVC070 28/18 A3009 RMK AO2 LTG DSNT W T02750184
KBXA 202015Z AUTO 10007KT 10SM SCT031 SCT042 OVC070 27/19 A3009 RMK AO2 LTG DSNT W T02710185
KBXA 201955Z AUTO 13005KT 10SM SCT030 OVC070 28/19 A3010 RMK AO2 T02750189
KBXA 201935Z AUTO 10010KT 10SM BKN030 OVC070 28/19 A3010 RMK AO2 T02820187
KBXA 201915Z AUTO 12009KT 10SM SCT030 SCT070 28/19 A3010 RMK AO2 LTG DSNT W T02800185
KBXA 201855Z AUTO 13006KT 10SM CLR 28/19 A3011 RMK AO2 T02820186
KBXA 201835Z AUTO 11008KT 10SM SCT038 SCT045 28/18 A3012 RMK AO2 LTG DSNT W T02800184
KBXA 201815Z AUTO 11009KT 10SM CLR 29/19 A3013 RMK AO2 LTG DSNT W T02880186
KBXA 201755Z AUTO 10008KT 10SM SCT030 28/19 A3015 RMK AO2 T02750185 10280 20137
KBXA 201735Z AUTO 09006KT 10SM SCT030 27/19 A3016 RMK AO2 T02740185
KBXA 201715Z AUTO 12008KT 10SM CLR 28/19 A3017 RMK AO2 T02750185
KBXA 201655Z AUTO 08007KT 10SM CLR 27/18 A3018 RMK AO2 T02710184
KBXA 201635Z AUTO 12005KT 10SM CLR 26/18 A3018 RMK AO2 LTG DSNT W T02560179
KBXA 201615Z AUTO 11005KT 10SM CLR 25/18 A3019 RMK AO2 LTG DSNT W T02490177
KBXA 201555Z AUTO 07004KT 10SM CLR 24/17 A3019 RMK AO2 LTG DSNT W T02380173
KBXA 201535Z AUTO 08003KT 10SM SCT049 22/17 A3020 RMK AO2 LTG DSNT W T02230169
KBXA 201515Z AUTO 09003KT 10SM CLR 21/16 A3020 RMK AO2 T02100163
KBXA 201455Z AUTO 05005KT 10SM SCT046 20/16 A3020 RMK AO2 T01970159
KBXA 201435Z AUTO 00000KT 10SM SCT048 19/15 A3021 RMK AO2 LTG DSNT W T01910154
KBXA 201415Z AUTO 00000KT 10SM SCT046 18/15 A3021 RMK AO2 T01830151
KBXA 201355Z AUTO 00000KT 10SM BKN046 17/15 A3021 RMK AO2 LTG DSNT W T01740152
KBXA 201335Z AUTO 00000KT 10SM CLR 17/15 A3021 RMK AO2 T01650145
KBXA 201315Z AUTO 01003KT 10SM CLR 16/14 A3020 RMK AO2 T01600143
KBXA 201255Z AUTO 00000KT 10SM CLR 15/14 A3019 RMK AO2 LTG DSNT W T01520137
KBXA 201235Z AUTO 00000KT 10SM CLR 15/13 A3019 RMK AO2 T01460131
KBXA 201215Z AUTO 36003KT 10SM CLR 14/12 A3019 RMK AO2 LTG DSNT W T01370122
KBXA 201155Z AUTO 35003KT 10SM CLR 14/12 A3019 RMK AO2 LTG DSNT W T01370122 10156 20133
KBXA 201135Z AUTO 01004KT 10SM CLR 14/12 A3018 RMK AO2 T01380123
KBXA 201115Z AUTO 00000KT 10SM CLR 14/13 A3018 RMK AO2 LTG DSNT W T01410127
KBXA 201055Z AUTO 01004KT 7SM CLR 13/12 A3018 RMK AO2 T01330118
KBXA 201035Z AUTO 00000KT 10SM VCTS CLR 14/12 A3018 RMK AO2 LTG DSNT SE T01360121
KBXA 201015Z AUTO 36003KT 10SM CLR 14/13 A3017 RMK AO2 T01400126
KBXA 200955Z AUTO 36004KT 10SM CLR 14/13 A3017 RMK AO2 T01400125
KBXA 200935Z AUTO 36003KT 3SM CLR 14/12 A3016 RMK AO2 T01380123
KBXA 200915Z AUTO 00000KT 1SM VV007 14/13 A3017 RMK AO2 T01420127
KBXA 200855Z AUTO 36003KT 10SM CLR 14/13 A3016 RMK AO2 T01410126
KBXA 200835Z AUTO 35003KT 10SM CLR 14/13 A3017 RMK AO2 T01410126
KBXA 200815Z AUTO 01003KT 5SM CLR 14/13 A3017 RMK AO2 T01410126
KBXA 200755Z AUTO 00000KT 7SM CLR 14/13 A3018 RMK AO2 T01420126
KBXA 200735Z AUTO 36003KT 10SM CLR 14/13 A3018 RMK AO2 T01410125
KBXA 200715Z AUTO 35003KT 10SM CLR 14/13 A3019 RMK AO2 T01420125
KBXA 200655Z AUTO 00000KT 7SM CLR 15/13 A3019 RMK AO2 T01490133
KBXA 200635Z AUTO 00000KT 10SM CLR 15/14 A3020 RMK AO2 T01520135
KBXA 200615Z AUTO 00000KT 10SM CLR 16/14 A3020 RMK AO2 T01550137
KBXA 200555Z AUTO 00000KT 7SM CLR 16/14 A3020 RMK AO2 T01560139 10205 20153 402920101
KBXA 200535Z AUTO 00000KT 10SM CLR 15/13 A3019 RMK AO2 T01530134
KBXA 200515Z AUTO 01003KT 10SM CLR 16/14 A3020 RMK AO2 T01570137
KBXA 200455Z AUTO 00000KT 10SM CLR 16/14 A3020 RMK AO2 T01580135
KBXA 200435Z AUTO 00000KT 10SM CLR 19/15 A3020 RMK AO2 T01930154
KBXA 200415Z AUTO 00000KT 10SM CLR 18/15 A3020 RMK AO2 T01750151
KBXA 200355Z AUTO 00000KT 5SM CLR 17/15 A3020 RMK AO2 T01650149
KBXA 200335Z AUTO 00000KT 10SM CLR 17/15 A3020 RMK AO2 T01680150
KBXA 200315Z AUTO 00000KT 10SM CLR 17/15 A3020 RMK AO2 T01650147
KBXA 200255Z AUTO 36003KT 10SM CLR 17/15 A3020 RMK AO2 T01700152
KBXA 200235Z AUTO 36003KT 10SM CLR 17/15 A3019 RMK AO2 LTG DSNT W T01720154
KBXA 200215Z AUTO 00000KT 10SM CLR 18/16 A3019 RMK AO2 T01780159
KBXA 200155Z AUTO 00000KT 10SM CLR 18/16 A3018 RMK AO2 LTG DSNT SE T01790161
KBXA 200135Z AUTO 00000KT 10SM CLR 19/17 A3018 RMK AO2 T01860168
KBXA 200115Z AUTO 00000KT 10SM CLR 19/17 A3018 RMK AO2 T01900170
KBXA 200055Z AUTO 00000KT 10SM CLR 19/17 A3017 RMK AO2 T01940165
KBXA 200035Z AUTO 00000KT 10SM CLR 20/17 A3017 RMK AO2 T01960172
KBXA 200015Z AUTO 00000KT 10SM CLR 20/18 A3016 RMK AO2 T02030176
KBXA 192355Z AUTO 00000KT 10SM CLR 21/18 A3016 RMK AO2 T02070177 10292 20204
KBXA 192335Z AUTO 00000KT 10SM CLR 21/17 A3016 RMK AO2 T02050170
KBXA 192315Z AUTO 00000KT 10SM CLR 24/17 A3015 RMK AO2 T02410165
KBXA 192255Z AUTO 06003KT 10SM CLR 26/16 A3015 RMK AO2 T02550162
KBXA 192235Z AUTO 07003KT 10SM SCT050 27/16 A3015 RMK AO2 T02660159
KBXA 192215Z AUTO 08003KT 10SM SCT050 28/15 A3015 RMK AO2 T02760153
KBXA 192155Z AUTO 12003KT 10SM CLR 27/15 A3015 RMK AO2 T02740148
KBXA 192135Z AUTO 09006KT 10SM SCT050 29/14 A3015 RMK AO2 T02870144
KBXA 192115Z AUTO 00000KT 10SM SCT050 29/15 A3015 RMK AO2 T02850147
KBXA 192055Z AUTO 09004KT 10SM CLR 28/15 A3015 RMK AO2 T02840152
KBXA 192035Z AUTO 08005KT 10SM SCT047 29/15 A3015 RMK AO2 T02870150
KBXA 192015Z AUTO 08004KT 10SM SCT047 SCT050 28/15 A3016 RMK AO2 T02810151
KBXA 191955Z AUTO 07005KT 10SM BKN047 29/16 A3016 RMK AO2 T02860157
KBXA 191935Z AUTO 05007KT 10SM BKN047 28/16 A3016 RMK AO2 T02840160
KBXA 191910Z AUTO 11006KT 10SM SCT041 SCT055 29/16 A3017 RMK AO2 T02910159
KBXA 191855Z AUTO 00000KT 10SM SCT039 SCT055 28/17 A3017 RMK AO2 T02820166
KBXA 191835Z AUTO 07004KT 10SM SCT044 27/17 A3018 RMK AO2 T02740169
KBXA 191815Z AUTO 10005KT 10SM SCT043 28/17 A3019 RMK AO2 T02750173
KBXA 191755Z AUTO 09005KT 10SM SCT030 SCT040 28/18 A3021 RMK AO2 T02780176 10280 20108
KBXA 191735Z AUTO 07003KT 10SM SCT030 BKN038 27/18 A3022 RMK AO2 T02680176
KBXA 191715Z AUTO 06004KT 10SM SCT028 27/18 A3022 RMK AO2 T02740179
KBXA 191655Z AUTO 06007KT 10SM CLR 26/18 A3023 RMK AO2 T02640176
KBXA 191635Z AUTO 05003KT 10SM CLR 26/17 A3024 RMK AO2 T02550170
KBXA 191615Z AUTO 06006KT 10SM CLR 25/16 A3024 RMK AO2 T02450164
KBXA 191555Z AUTO 04005KT 10SM CLR 24/16 A3025 RMK AO2 T02360160
KBXA 191535Z AUTO 00000KT 10SM CLR 23/16 A3024 RMK AO2 T02290156
KBXA 191515Z AUTO 05003KT 10SM CLR 21/15 A3024 RMK AO2 T02130148
KBXA 191455Z AUTO 02003KT 10SM CLR 20/14 A3024 RMK AO2 T02010143
KBXA 191435Z AUTO 00000KT 10SM CLR 19/14 A3024 RMK AO2 T01890137
KBXA 191415Z AUTO 03003KT 10SM CLR 18/13 A3024 RMK AO2 T01750134
KBXA 191355Z AUTO 00000KT 10SM CLR 16/13 A3023 RMK AO2 T01630130
KBXA 191335Z AUTO 03003KT 10SM CLR 15/12 A3022 RMK AO2 T01500123
KBXA 191315Z AUTO 00000KT 10SM CLR 14/11 A3021 RMK AO2 T01370114